Aviation Digital Data Service (ADDS)

Output produced by METARs form (0602 UTC 08 December 2016)
found at http://aviationweather.gov/adds/metars/
 
KISP 080532Z 0806/0906 VRB03KT P6SM FEW035 BKN150 
     FM081400 27009KT P6SM BKN120 
     FM081800 28013G22KT P6SM FEW050 
     FM082300 29014G23KT P6SM SCT030